sensor_id;sensor_type;location;lat;lon;timestamp;P1;durP1;ratioP1;P2;durP2;ratioP2
13566;SDS011;6855;48.112;11.298;2022-10-22T00:01:06;2.47;;;1.87;;
13566;SDS011;6855;48.112;11.298;2022-10-22T00:03:33;6.43;;;1.80;;
13566;SDS011;6855;48.112;11.298;2022-10-22T00:06:00;3.13;;;2.23;;
13566;SDS011;6855;48.112;11.298;2022-10-22T00:08:27;2.60;;;2.03;;
13566;SDS011;6855;48.112;11.298;2022-10-22T00:10:56;3.60;;;2.10;;
13566;SDS011;6855;48.112;11.298;2022-10-22T00:13:23;3.17;;;2.03;;
13566;SDS011;6855;48.112;11.298;2022-10-22T00:15:50;6.17;;;1.93;;
13566;SDS011;6855;48.112;11.298;2022-10-22T00:18:18;3.37;;;1.37;;
13566;SDS011;6855;48.112;11.298;2022-10-22T00:20:45;4.13;;;1.60;;
13566;SDS011;6855;48.112;11.298;2022-10-22T00:23:12;4.60;;;1.40;;
13566;SDS011;6855;48.112;11.298;2022-10-22T00:25:40;1.80;;;0.90;;
13566;SDS011;6855;48.112;11.298;2022-10-22T00:28:08;2.00;;;1.20;;
13566;SDS011;6855;48.112;11.298;2022-10-22T00:30:36;1.83;;;0.90;;
13566;SDS011;6855;48.112;11.298;2022-10-22T00:33:03;1.93;;;1.47;;
13566;SDS011;6855;48.112;11.298;2022-10-22T00:35:31;2.00;;;0.80;;
13566;SDS011;6855;48.112;11.298;2022-10-22T00:37:58;4.73;;;1.27;;
13566;SDS011;6855;48.112;11.298;2022-10-22T00:40:25;1.87;;;0.97;;
13566;SDS011;6855;48.112;11.298;2022-10-22T00:42:52;2.50;;;1.13;;
13566;SDS011;6855;48.112;11.298;2022-10-22T00:45:22;1.43;;;0.80;;
13566;SDS011;6855;48.112;11.298;2022-10-22T00:47:51;3.47;;;0.97;;
13566;SDS011;6855;48.112;11.298;2022-10-22T00:50:21;1.80;;;1.10;;
13566;SDS011;6855;48.112;11.298;2022-10-22T00:52:49;1.33;;;0.87;;
13566;SDS011;6855;48.112;11.298;2022-10-22T00:55:16;2.43;;;1.13;;
13566;SDS011;6855;48.112;11.298;2022-10-22T00:57:44;1.50;;;0.93;;
13566;SDS011;6855;48.112;11.298;2022-10-22T01:00:11;3.87;;;1.00;;
13566;SDS011;6855;48.112;11.298;2022-10-22T01:02:40;1.10;;;0.80;;
13566;SDS011;6855;48.112;11.298;2022-10-22T01:05:08;8.23;;;1.03;;
13566;SDS011;6855;48.112;11.298;2022-10-22T01:07:36;1.80;;;1.00;;
13566;SDS011;6855;48.112;11.298;2022-10-22T01:10:07;4.07;;;1.00;;
13566;SDS011;6855;48.112;11.298;2022-10-22T01:12:40;2.17;;;0.90;;
13566;SDS011;6855;48.112;11.298;2022-10-22T01:15:10;2.20;;;0.80;;
13566;SDS011;6855;48.112;11.298;2022-10-22T01:17:41;1.30;;;0.90;;
13566;SDS011;6855;48.112;11.298;2022-10-22T01:20:16;1.20;;;0.80;;
13566;SDS011;6855;48.112;11.298;2022-10-22T01:22:52;2.13;;;1.23;;
13566;SDS011;6855;48.112;11.298;2022-10-22T01:25:23;1.63;;;0.80;;
13566;SDS011;6855;48.112;11.298;2022-10-22T01:27:58;1.63;;;0.93;;
13566;SDS011;6855;48.112;11.298;2022-10-22T01:30:28;10.37;;;0.90;;
13566;SDS011;6855;48.112;11.298;2022-10-22T01:32:57;2.17;;;1.00;;
13566;SDS011;6855;48.112;11.298;2022-10-22T01:35:26;2.60;;;1.00;;
13566;SDS011;6855;48.112;11.298;2022-10-22T01:37:55;3.63;;;1.03;;
13566;SDS011;6855;48.112;11.298;2022-10-22T01:40:23;1.87;;;0.97;;
13566;SDS011;6855;48.112;11.298;2022-10-22T01:42:57;3.23;;;1.20;;
13566;SDS011;6855;48.112;11.298;2022-10-22T01:45:24;6.17;;;1.20;;
13566;SDS011;6855;48.112;11.298;2022-10-22T01:47:56;2.50;;;1.10;;
13566;SDS011;6855;48.112;11.298;2022-10-22T01:50:31;1.67;;;1.10;;
13566;SDS011;6855;48.112;11.298;2022-10-22T01:53:06;4.63;;;1.07;;
13566;SDS011;6855;48.112;11.298;2022-10-22T01:55:39;1.10;;;0.83;;
13566;SDS011;6855;48.112;11.298;2022-10-22T01:58:10;3.67;;;1.20;;
13566;SDS011;6855;48.112;11.298;2022-10-22T02:00:44;2.20;;;0.83;;
13566;SDS011;6855;48.112;11.298;2022-10-22T02:03:14;1.67;;;1.13;;
13566;SDS011;6855;48.112;11.298;2022-10-22T02:05:45;4.40;;;1.13;;
13566;SDS011;6855;48.112;11.298;2022-10-22T02:08:16;0.97;;;0.80;;
13566;SDS011;6855;48.112;11.298;2022-10-22T02:10:44;3.10;;;1.00;;
13566;SDS011;6855;48.112;11.298;2022-10-22T02:13:13;0.83;;;0.80;;
13566;SDS011;6855;48.112;11.298;2022-10-22T02:15:42;3.50;;;0.90;;
13566;SDS011;6855;48.112;11.298;2022-10-22T02:18:09;4.10;;;1.33;;
13566;SDS011;6855;48.112;11.298;2022-10-22T02:20:39;4.77;;;1.00;;
13566;SDS011;6855;48.112;11.298;2022-10-22T02:23:07;3.80;;;1.37;;
13566;SDS011;6855;48.112;11.298;2022-10-22T02:25:35;1.50;;;0.90;;
13566;SDS011;6855;48.112;11.298;2022-10-22T02:28:06;0.90;;;0.70;;
13566;SDS011;6855;48.112;11.298;2022-10-22T02:30:37;2.80;;;1.07;;
13566;SDS011;6855;48.112;11.298;2022-10-22T02:33:07;3.50;;;0.80;;
13566;SDS011;6855;48.112;11.298;2022-10-22T02:35:35;3.40;;;0.90;;
13566;SDS011;6855;48.112;11.298;2022-10-22T02:38:06;0.90;;;0.90;;
13566;SDS011;6855;48.112;11.298;2022-10-22T02:40:33;3.70;;;1.10;;
13566;SDS011;6855;48.112;11.298;2022-10-22T02:43:02;2.20;;;1.17;;
13566;SDS011;6855;48.112;11.298;2022-10-22T02:45:29;1.13;;;0.80;;
13566;SDS011;6855;48.112;11.298;2022-10-22T02:47:57;1.83;;;0.90;;
13566;SDS011;6855;48.112;11.298;2022-10-22T02:50:25;2.17;;;0.80;;
13566;SDS011;6855;48.112;11.298;2022-10-22T02:52:52;1.70;;;0.87;;
13566;SDS011;6855;48.112;11.298;2022-10-22T02:55:21;2.90;;;0.90;;
13566;SDS011;6855;48.112;11.298;2022-10-22T02:57:48;3.90;;;0.97;;
13566;SDS011;6855;48.112;11.298;2022-10-22T03:00:15;0.93;;;0.70;;
13566;SDS011;6855;48.112;11.298;2022-10-22T03:02:42;5.90;;;1.63;;
13566;SDS011;6855;48.112;11.298;2022-10-22T03:05:10;0.80;;;0.73;;
13566;SDS011;6855;48.112;11.298;2022-10-22T03:07:37;3.70;;;1.13;;
13566;SDS011;6855;48.112;11.298;2022-10-22T03:10:04;4.90;;;0.90;;
13566;SDS011;6855;48.112;11.298;2022-10-22T03:12:33;1.43;;;0.80;;
13566;SDS011;6855;48.112;11.298;2022-10-22T03:15:00;3.17;;;0.87;;
13566;SDS011;6855;48.112;11.298;2022-10-22T03:17:27;4.50;;;0.93;;
13566;SDS011;6855;48.112;11.298;2022-10-22T03:19:54;1.10;;;1.00;;
13566;SDS011;6855;48.112;11.298;2022-10-22T03:22:22;1.90;;;0.70;;
13566;SDS011;6855;48.112;11.298;2022-10-22T03:24:51;5.60;;;0.90;;
13566;SDS011;6855;48.112;11.298;2022-10-22T03:27:21;0.80;;;0.80;;
13566;SDS011;6855;48.112;11.298;2022-10-22T03:29:50;0.90;;;0.80;;
13566;SDS011;6855;48.112;11.298;2022-10-22T03:32:18;2.17;;;1.30;;
13566;SDS011;6855;48.112;11.298;2022-10-22T03:34:45;1.43;;;0.90;;
13566;SDS011;6855;48.112;11.298;2022-10-22T03:37:12;1.20;;;0.70;;
13566;SDS011;6855;48.112;11.298;2022-10-22T03:39:40;1.33;;;0.80;;
13566;SDS011;6855;48.112;11.298;2022-10-22T03:42:07;1.07;;;0.70;;
13566;SDS011;6855;48.112;11.298;2022-10-22T03:44:35;1.30;;;0.70;;
13566;SDS011;6855;48.112;11.298;2022-10-22T03:47:03;0.83;;;0.60;;
13566;SDS011;6855;48.112;11.298;2022-10-22T03:49:31;1.80;;;0.70;;
13566;SDS011;6855;48.112;11.298;2022-10-22T03:52:03;1.10;;;0.80;;
13566;SDS011;6855;48.112;11.298;2022-10-22T03:54:31;1.03;;;0.70;;
13566;SDS011;6855;48.112;11.298;2022-10-22T03:56:58;3.43;;;1.77;;
13566;SDS011;6855;48.112;11.298;2022-10-22T03:59:25;2.70;;;0.80;;
13566;SDS011;6855;48.112;11.298;2022-10-22T04:01:52;0.70;;;0.70;;
13566;SDS011;6855;48.112;11.298;2022-10-22T04:04:21;2.30;;;0.80;;
13566;SDS011;6855;48.112;11.298;2022-10-22T04:06:48;1.80;;;0.77;;
13566;SDS011;6855;48.112;11.298;2022-10-22T04:09:15;2.50;;;0.73;;
13566;SDS011;6855;48.112;11.298;2022-10-22T04:11:42;1.10;;;0.80;;
13566;SDS011;6855;48.112;11.298;2022-10-22T04:14:09;1.37;;;0.93;;
13566;SDS011;6855;48.112;11.298;2022-10-22T04:16:37;1.33;;;0.70;;
13566;SDS011;6855;48.112;11.298;2022-10-22T04:19:04;2.40;;;1.00;;
13566;SDS011;6855;48.112;11.298;2022-10-22T04:21:33;1.10;;;0.70;;
13566;SDS011;6855;48.112;11.298;2022-10-22T04:24:00;1.10;;;0.77;;
13566;SDS011;6855;48.112;11.298;2022-10-22T04:26:28;2.70;;;0.63;;
13566;SDS011;6855;48.112;11.298;2022-10-22T04:28:55;1.57;;;0.70;;
13566;SDS011;6855;48.112;11.298;2022-10-22T04:31:22;1.07;;;0.80;;
13566;SDS011;6855;48.112;11.298;2022-10-22T04:33:51;2.73;;;1.03;;
13566;SDS011;6855;48.112;11.298;2022-10-22T04:36:19;2.87;;;0.80;;
13566;SDS011;6855;48.112;11.298;2022-10-22T04:38:51;0.90;;;0.63;;
13566;SDS011;6855;48.112;11.298;2022-10-22T04:41:20;2.20;;;0.80;;
13566;SDS011;6855;48.112;11.298;2022-10-22T04:43:47;0.73;;;0.57;;
13566;SDS011;6855;48.112;11.298;2022-10-22T04:46:15;0.67;;;0.50;;
13566;SDS011;6855;48.112;11.298;2022-10-22T04:48:42;3.37;;;0.70;;
13566;SDS011;6855;48.112;11.298;2022-10-22T04:51:11;1.43;;;0.67;;
13566;SDS011;6855;48.112;11.298;2022-10-22T04:53:38;1.40;;;0.53;;
13566;SDS011;6855;48.112;11.298;2022-10-22T04:56:07;6.53;;;0.70;;
13566;SDS011;6855;48.112;11.298;2022-10-22T04:58:35;0.60;;;0.60;;
13566;SDS011;6855;48.112;11.298;2022-10-22T05:01:07;1.63;;;0.70;;
13566;SDS011;6855;48.112;11.298;2022-10-22T05:03:35;2.20;;;0.63;;
13566;SDS011;6855;48.112;11.298;2022-10-22T05:06:02;0.70;;;0.70;;
13566;SDS011;6855;48.112;11.298;2022-10-22T05:08:29;0.77;;;0.70;;
13566;SDS011;6855;48.112;11.298;2022-10-22T05:10:56;1.83;;;0.80;;
13566;SDS011;6855;48.112;11.298;2022-10-22T05:13:25;0.70;;;0.70;;
13566;SDS011;6855;48.112;11.298;2022-10-22T05:15:52;0.60;;;0.50;;
13566;SDS011;6855;48.112;11.298;2022-10-22T05:18:19;2.80;;;0.80;;
13566;SDS011;6855;48.112;11.298;2022-10-22T05:20:46;0.97;;;0.60;;
13566;SDS011;6855;48.112;11.298;2022-10-22T05:23:13;0.70;;;0.40;;
13566;SDS011;6855;48.112;11.298;2022-10-22T05:25:40;1.90;;;0.60;;
13566;SDS011;6855;48.112;11.298;2022-10-22T05:28:08;0.70;;;0.60;;
13566;SDS011;6855;48.112;11.298;2022-10-22T05:30:36;1.43;;;0.60;;
13566;SDS011;6855;48.112;11.298;2022-10-22T05:33:03;1.00;;;0.60;;
13566;SDS011;6855;48.112;11.298;2022-10-22T05:35:30;1.00;;;0.70;;
13566;SDS011;6855;48.112;11.298;2022-10-22T05:37:58;0.80;;;0.70;;
13566;SDS011;6855;48.112;11.298;2022-10-22T05:40:25;0.60;;;0.57;;
13566;SDS011;6855;48.112;11.298;2022-10-22T05:42:52;1.20;;;0.70;;
13566;SDS011;6855;48.112;11.298;2022-10-22T05:45:19;0.77;;;0.50;;
13566;SDS011;6855;48.112;11.298;2022-10-22T05:47:48;1.23;;;0.50;;
13566;SDS011;6855;48.112;11.298;2022-10-22T05:50:15;1.73;;;0.50;;
13566;SDS011;6855;48.112;11.298;2022-10-22T05:52:42;2.00;;;0.60;;
13566;SDS011;6855;48.112;11.298;2022-10-22T05:55:09;0.50;;;0.43;;
13566;SDS011;6855;48.112;11.298;2022-10-22T05:57:37;0.70;;;0.50;;
13566;SDS011;6855;48.112;11.298;2022-10-22T06:00:05;0.70;;;0.50;;
13566;SDS011;6855;48.112;11.298;2022-10-22T06:02:33;0.60;;;0.50;;
13566;SDS011;6855;48.112;11.298;2022-10-22T06:05:02;0.97;;;0.60;;
13566;SDS011;6855;48.112;11.298;2022-10-22T06:07:29;0.60;;;0.50;;
13566;SDS011;6855;48.112;11.298;2022-10-22T06:09:57;0.80;;;0.63;;
13566;SDS011;6855;48.112;11.298;2022-10-22T06:12:25;1.80;;;0.80;;
13566;SDS011;6855;48.112;11.298;2022-10-22T06:14:52;0.80;;;0.80;;
13566;SDS011;6855;48.112;11.298;2022-10-22T06:17:19;4.13;;;0.60;;
13566;SDS011;6855;48.112;11.298;2022-10-22T06:19:46;0.97;;;0.50;;
13566;SDS011;6855;48.112;11.298;2022-10-22T06:22:15;1.47;;;0.60;;
13566;SDS011;6855;48.112;11.298;2022-10-22T06:24:42;0.90;;;0.60;;
13566;SDS011;6855;48.112;11.298;2022-10-22T06:27:09;1.03;;;0.80;;
13566;SDS011;6855;48.112;11.298;2022-10-22T06:29:36;1.40;;;0.80;;
13566;SDS011;6855;48.112;11.298;2022-10-22T06:32:03;0.70;;;0.60;;
13566;SDS011;6855;48.112;11.298;2022-10-22T06:34:31;2.10;;;0.60;;
13566;SDS011;6855;48.112;11.298;2022-10-22T06:36:58;0.67;;;0.60;;
13566;SDS011;6855;48.112;11.298;2022-10-22T06:39:26;1.10;;;1.00;;
13566;SDS011;6855;48.112;11.298;2022-10-22T06:41:53;1.60;;;1.30;;
13566;SDS011;6855;48.112;11.298;2022-10-22T06:44:21;2.03;;;1.80;;
13566;SDS011;6855;48.112;11.298;2022-10-22T06:46:48;2.30;;;1.83;;
13566;SDS011;6855;48.112;11.298;2022-10-22T06:49:16;2.17;;;1.53;;
13566;SDS011;6855;48.112;11.298;2022-10-22T06:51:44;1.70;;;1.13;;
13566;SDS011;6855;48.112;11.298;2022-10-22T06:54:11;0.70;;;0.70;;
13566;SDS011;6855;48.112;11.298;2022-10-22T06:56:39;1.37;;;0.87;;
13566;SDS011;6855;48.112;11.298;2022-10-22T06:59:07;0.90;;;0.67;;
13566;SDS011;6855;48.112;11.298;2022-10-22T07:01:34;0.73;;;0.73;;
13566;SDS011;6855;48.112;11.298;2022-10-22T07:04:02;1.07;;;0.60;;
13566;SDS011;6855;48.112;11.298;2022-10-22T07:06:30;0.60;;;0.60;;
13566;SDS011;6855;48.112;11.298;2022-10-22T07:08:57;0.97;;;0.50;;
13566;SDS011;6855;48.112;11.298;2022-10-22T07:11:26;2.50;;;0.80;;
13566;SDS011;6855;48.112;11.298;2022-10-22T07:13:55;0.80;;;0.60;;
13566;SDS011;6855;48.112;11.298;2022-10-22T07:16:23;0.67;;;0.50;;
13566;SDS011;6855;48.112;11.298;2022-10-22T07:18:50;0.97;;;0.70;;
13566;SDS011;6855;48.112;11.298;2022-10-22T07:21:17;1.10;;;0.70;;
13566;SDS011;6855;48.112;11.298;2022-10-22T07:23:46;0.60;;;0.50;;
13566;SDS011;6855;48.112;11.298;2022-10-22T07:26:14;0.90;;;0.80;;
13566;SDS011;6855;48.112;11.298;2022-10-22T07:28:42;7.10;;;1.27;;
13566;SDS011;6855;48.112;11.298;2022-10-22T07:31:11;3.43;;;0.70;;
13566;SDS011;6855;48.112;11.298;2022-10-22T07:33:39;1.10;;;0.80;;
13566;SDS011;6855;48.112;11.298;2022-10-22T07:36:06;0.60;;;0.50;;
13566;SDS011;6855;48.112;11.298;2022-10-22T07:38:34;0.77;;;0.53;;
13566;SDS011;6855;48.112;11.298;2022-10-22T07:41:01;1.53;;;0.70;;
13566;SDS011;6855;48.112;11.298;2022-10-22T07:43:28;0.70;;;0.60;;
13566;SDS011;6855;48.112;11.298;2022-10-22T07:45:55;0.90;;;0.53;;
13566;SDS011;6855;48.112;11.298;2022-10-22T07:48:25;2.97;;;0.73;;
13566;SDS011;6855;48.112;11.298;2022-10-22T07:50:52;1.53;;;0.50;;
13566;SDS011;6855;48.112;11.298;2022-10-22T07:53:19;0.80;;;0.60;;
13566;SDS011;6855;48.112;11.298;2022-10-22T07:55:47;0.50;;;0.40;;
13566;SDS011;6855;48.112;11.298;2022-10-22T07:58:14;0.70;;;0.57;;
13566;SDS011;6855;48.112;11.298;2022-10-22T08:00:42;0.67;;;0.67;;
13566;SDS011;6855;48.112;11.298;2022-10-22T08:03:09;0.97;;;0.60;;
13566;SDS011;6855;48.112;11.298;2022-10-22T08:05:38;0.60;;;0.50;;
13566;SDS011;6855;48.112;11.298;2022-10-22T08:08:07;0.57;;;0.47;;
13566;SDS011;6855;48.112;11.298;2022-10-22T08:10:35;1.23;;;0.53;;
13566;SDS011;6855;48.112;11.298;2022-10-22T08:13:02;0.60;;;0.50;;
13566;SDS011;6855;48.112;11.298;2022-10-22T08:15:29;4.83;;;1.37;;
13566;SDS011;6855;48.112;11.298;2022-10-22T08:17:56;1.60;;;0.70;;
13566;SDS011;6855;48.112;11.298;2022-10-22T08:20:23;2.30;;;0.70;;
13566;SDS011;6855;48.112;11.298;2022-10-22T08:22:52;0.67;;;0.50;;
13566;SDS011;6855;48.112;11.298;2022-10-22T08:25:19;2.30;;;0.73;;
13566;SDS011;6855;48.112;11.298;2022-10-22T08:27:46;0.90;;;0.70;;
13566;SDS011;6855;48.112;11.298;2022-10-22T08:30:14;2.20;;;0.60;;
13566;SDS011;6855;48.112;11.298;2022-10-22T08:32:41;2.60;;;0.80;;
13566;SDS011;6855;48.112;11.298;2022-10-22T08:35:08;1.13;;;0.70;;
13566;SDS011;6855;48.112;11.298;2022-10-22T08:37:35;3.63;;;0.70;;
13566;SDS011;6855;48.112;11.298;2022-10-22T08:40:04;0.60;;;0.60;;
13566;SDS011;6855;48.112;11.298;2022-10-22T08:45:23;2.77;;;0.80;;
13566;SDS011;6855;48.112;11.298;2022-10-22T08:47:58;1.10;;;0.83;;
13566;SDS011;6855;48.112;11.298;2022-10-22T08:50:29;1.20;;;0.80;;
13566;SDS011;6855;48.112;11.298;2022-10-22T08:52:57;4.73;;;0.90;;
13566;SDS011;6855;48.112;11.298;2022-10-22T08:55:26;1.47;;;0.70;;
13566;SDS011;6855;48.112;11.298;2022-10-22T08:57:55;0.83;;;0.60;;
13566;SDS011;6855;48.112;11.298;2022-10-22T09:00:27;3.37;;;0.73;;
13566;SDS011;6855;48.112;11.298;2022-10-22T09:03:02;2.90;;;0.90;;
13566;SDS011;6855;48.112;11.298;2022-10-22T09:05:33;0.70;;;0.60;;
13566;SDS011;6855;48.112;11.298;2022-10-22T09:08:04;5.47;;;1.63;;
13566;SDS011;6855;48.112;11.298;2022-10-22T09:10:34;1.10;;;0.90;;
13566;SDS011;6855;48.112;11.298;2022-10-22T09:13:02;5.43;;;1.10;;
13566;SDS011;6855;48.112;11.298;2022-10-22T09:15:29;3.47;;;0.80;;
13566;SDS011;6855;48.112;11.298;2022-10-22T09:18:02;2.50;;;0.60;;
13566;SDS011;6855;48.112;11.298;2022-10-22T09:20:33;1.23;;;0.70;;
13566;SDS011;6855;48.112;11.298;2022-10-22T09:23:07;3.43;;;0.73;;
13566;SDS011;6855;48.112;11.298;2022-10-22T09:25:40;0.83;;;0.70;;
13566;SDS011;6855;48.112;11.298;2022-10-22T09:28:08;1.60;;;0.70;;
13566;SDS011;6855;48.112;11.298;2022-10-22T09:30:36;1.00;;;0.67;;
13566;SDS011;6855;48.112;11.298;2022-10-22T09:33:06;0.90;;;0.80;;
13566;SDS011;6855;48.112;11.298;2022-10-22T09:35:43;2.57;;;1.00;;
13566;SDS011;6855;48.112;11.298;2022-10-22T09:38:10;1.00;;;0.80;;
13566;SDS011;6855;48.112;11.298;2022-10-22T09:40:42;1.30;;;0.93;;
13566;SDS011;6855;48.112;11.298;2022-10-22T09:43:10;1.70;;;1.37;;
13566;SDS011;6855;48.112;11.298;2022-10-22T09:45:38;2.30;;;0.90;;
13566;SDS011;6855;48.112;11.298;2022-10-22T09:48:09;0.90;;;0.77;;
13566;SDS011;6855;48.112;11.298;2022-10-22T09:50:38;1.73;;;1.50;;
13566;SDS011;6855;48.112;11.298;2022-10-22T09:53:11;1.13;;;0.90;;
13566;SDS011;6855;48.112;11.298;2022-10-22T09:55:39;1.10;;;0.87;;
13566;SDS011;6855;48.112;11.298;2022-10-22T09:58:11;1.00;;;0.80;;
13566;SDS011;6855;48.112;11.298;2022-10-22T10:00:39;2.10;;;0.90;;
13566;SDS011;6855;48.112;11.298;2022-10-22T10:03:11;1.03;;;0.80;;
13566;SDS011;6855;48.112;11.298;2022-10-22T10:05:41;0.90;;;0.80;;
13566;SDS011;6855;48.112;11.298;2022-10-22T10:08:11;1.60;;;0.70;;
13566;SDS011;6855;48.112;11.298;2022-10-22T10:10:40;0.83;;;0.83;;
13566;SDS011;6855;48.112;11.298;2022-10-22T10:13:13;2.03;;;0.80;;
13566;SDS011;6855;48.112;11.298;2022-10-22T10:15:43;1.20;;;0.90;;
13566;SDS011;6855;48.112;11.298;2022-10-22T10:18:13;1.10;;;0.90;;
13566;SDS011;6855;48.112;11.298;2022-10-22T10:20:45;1.23;;;0.80;;
13566;SDS011;6855;48.112;11.298;2022-10-22T10:23:20;2.30;;;0.97;;
13566;SDS011;6855;48.112;11.298;2022-10-22T10:25:52;1.30;;;0.90;;
13566;SDS011;6855;48.112;11.298;2022-10-22T10:28:30;1.10;;;0.90;;
13566;SDS011;6855;48.112;11.298;2022-10-22T10:31:00;2.60;;;0.80;;
13566;SDS011;6855;48.112;11.298;2022-10-22T10:33:32;3.80;;;0.90;;
13566;SDS011;6855;48.112;11.298;2022-10-22T10:36:03;1.03;;;0.80;;
13566;SDS011;6855;48.112;11.298;2022-10-22T10:38:43;0.60;;;0.60;;
13566;SDS011;6855;48.112;11.298;2022-10-22T10:41:18;1.00;;;0.80;;
13566;SDS011;6855;48.112;11.298;2022-10-22T10:43:59;2.47;;;0.93;;
13566;SDS011;6855;48.112;11.298;2022-10-22T10:46:32;1.27;;;0.57;;
13566;SDS011;6855;48.112;11.298;2022-10-22T10:49:02;0.70;;;0.60;;
13566;SDS011;6855;48.112;11.298;2022-10-22T10:51:36;1.07;;;0.57;;
13566;SDS011;6855;48.112;11.298;2022-10-22T10:54:12;0.60;;;0.60;;
13566;SDS011;6855;48.112;11.298;2022-10-22T10:56:43;4.00;;;0.67;;
13566;SDS011;6855;48.112;11.298;2022-10-22T10:59:21;1.77;;;0.60;;
13566;SDS011;6855;48.112;11.298;2022-10-22T11:01:55;1.10;;;0.50;;
13566;SDS011;6855;48.112;11.298;2022-10-22T11:07:11;1.00;;;0.60;;
13566;SDS011;6855;48.112;11.298;2022-10-22T11:09:40;1.97;;;0.80;;
13566;SDS011;6855;48.112;11.298;2022-10-22T11:12:10;3.80;;;0.50;;
13566;SDS011;6855;48.112;11.298;2022-10-22T11:14:44;0.90;;;0.60;;
13566;SDS011;6855;48.112;11.298;2022-10-22T11:17:13;9.37;;;0.60;;
13566;SDS011;6855;48.112;11.298;2022-10-22T11:19:42;0.90;;;0.60;;
13566;SDS011;6855;48.112;11.298;2022-10-22T11:22:12;0.83;;;0.60;;
13566;SDS011;6855;48.112;11.298;2022-10-22T11:24:42;1.00;;;0.70;;
13566;SDS011;6855;48.112;11.298;2022-10-22T11:27:14;1.30;;;0.50;;
13566;SDS011;6855;48.112;11.298;2022-10-22T11:29:46;0.80;;;0.50;;
13566;SDS011;6855;48.112;11.298;2022-10-22T11:32:16;1.70;;;0.70;;
13566;SDS011;6855;48.112;11.298;2022-10-22T11:34:45;1.10;;;0.50;;
13566;SDS011;6855;48.112;11.298;2022-10-22T11:37:13;1.17;;;0.60;;
13566;SDS011;6855;48.112;11.298;2022-10-22T11:39:42;1.23;;;0.60;;
13566;SDS011;6855;48.112;11.298;2022-10-22T11:42:14;0.63;;;0.63;;
13566;SDS011;6855;48.112;11.298;2022-10-22T11:44:57;1.17;;;0.60;;
13566;SDS011;6855;48.112;11.298;2022-10-22T11:47:25;2.50;;;0.60;;
13566;SDS011;6855;48.112;11.298;2022-10-22T11:49:57;2.20;;;0.70;;
13566;SDS011;6855;48.112;11.298;2022-10-22T11:52:26;1.53;;;0.80;;
13566;SDS011;6855;48.112;11.298;2022-10-22T11:55:10;4.00;;;0.97;;
13566;SDS011;6855;48.112;11.298;2022-10-22T11:57:55;1.23;;;0.70;;
13566;SDS011;6855;48.112;11.298;2022-10-22T12:00:33;1.73;;;0.60;;
13566;SDS011;6855;48.112;11.298;2022-10-22T12:03:01;0.80;;;0.50;;
13566;SDS011;6855;48.112;11.298;2022-10-22T12:05:32;1.60;;;0.60;;
13566;SDS011;6855;48.112;11.298;2022-10-22T12:08:01;1.43;;;0.60;;
13566;SDS011;6855;48.112;11.298;2022-10-22T12:10:33;1.17;;;0.70;;
13566;SDS011;6855;48.112;11.298;2022-10-22T12:13:01;1.27;;;0.70;;
13566;SDS011;6855;48.112;11.298;2022-10-22T12:15:31;2.50;;;0.90;;
13566;SDS011;6855;48.112;11.298;2022-10-22T12:18:00;0.87;;;0.60;;
13566;SDS011;6855;48.112;11.298;2022-10-22T12:20:28;1.10;;;0.70;;
13566;SDS011;6855;48.112;11.298;2022-10-22T12:22:55;1.57;;;0.60;;
13566;SDS011;6855;48.112;11.298;2022-10-22T12:25:24;1.53;;;0.73;;
13566;SDS011;6855;48.112;11.298;2022-10-22T12:27:52;5.53;;;0.70;;
13566;SDS011;6855;48.112;11.298;2022-10-22T12:30:22;1.50;;;0.80;;
13566;SDS011;6855;48.112;11.298;2022-10-22T12:32:50;1.83;;;0.80;;
13566;SDS011;6855;48.112;11.298;2022-10-22T12:35:20;6.80;;;0.90;;
13566;SDS011;6855;48.112;11.298;2022-10-22T12:37:48;1.43;;;0.70;;
13566;SDS011;6855;48.112;11.298;2022-10-22T12:40:17;1.83;;;0.70;;
13566;SDS011;6855;48.112;11.298;2022-10-22T12:42:48;0.70;;;0.60;;
13566;SDS011;6855;48.112;11.298;2022-10-22T12:45:16;2.47;;;0.70;;
13566;SDS011;6855;48.112;11.298;2022-10-22T12:47:46;2.10;;;0.70;;
13566;SDS011;6855;48.112;11.298;2022-10-22T12:50:17;5.07;;;1.10;;
13566;SDS011;6855;48.112;11.298;2022-10-22T12:52:46;2.20;;;0.73;;
13566;SDS011;6855;48.112;11.298;2022-10-22T12:55:14;1.70;;;0.70;;
13566;SDS011;6855;48.112;11.298;2022-10-22T12:57:42;1.53;;;0.60;;
13566;SDS011;6855;48.112;11.298;2022-10-22T13:00:19;1.73;;;1.03;;
13566;SDS011;6855;48.112;11.298;2022-10-22T13:02:46;1.30;;;1.20;;
13566;SDS011;6855;48.112;11.298;2022-10-22T13:05:19;2.60;;;0.90;;
13566;SDS011;6855;48.112;11.298;2022-10-22T13:07:48;1.03;;;0.90;;
13566;SDS011;6855;48.112;11.298;2022-10-22T13:10:17;3.90;;;0.93;;
13566;SDS011;6855;48.112;11.298;2022-10-22T13:12:48;1.37;;;0.80;;
13566;SDS011;6855;48.112;11.298;2022-10-22T13:15:19;1.67;;;0.80;;
13566;SDS011;6855;48.112;11.298;2022-10-22T13:17:47;1.37;;;0.80;;
13566;SDS011;6855;48.112;11.298;2022-10-22T13:20:16;2.40;;;0.80;;
13566;SDS011;6855;48.112;11.298;2022-10-22T13:22:53;3.90;;;1.00;;
13566;SDS011;6855;48.112;11.298;2022-10-22T13:25:24;1.23;;;0.70;;
13566;SDS011;6855;48.112;11.298;2022-10-22T13:27:52;1.70;;;0.73;;
13566;SDS011;6855;48.112;11.298;2022-10-22T13:30:21;1.00;;;0.80;;
13566;SDS011;6855;48.112;11.298;2022-10-22T13:32:49;2.40;;;0.70;;
13566;SDS011;6855;48.112;11.298;2022-10-22T13:35:16;3.23;;;0.90;;
13566;SDS011;6855;48.112;11.298;2022-10-22T13:37:44;2.00;;;0.70;;
13566;SDS011;6855;48.112;11.298;2022-10-22T13:40:13;2.93;;;0.80;;
13566;SDS011;6855;48.112;11.298;2022-10-22T13:42:40;1.10;;;0.90;;
13566;SDS011;6855;48.112;11.298;2022-10-22T13:45:08;4.30;;;1.03;;
13566;SDS011;6855;48.112;11.298;2022-10-22T13:47:35;2.20;;;0.73;;
13566;SDS011;6855;48.112;11.298;2022-10-22T13:50:03;1.17;;;0.80;;
13566;SDS011;6855;48.112;11.298;2022-10-22T13:52:33;2.77;;;0.83;;
13566;SDS011;6855;48.112;11.298;2022-10-22T13:55:00;3.77;;;0.77;;
13566;SDS011;6855;48.112;11.298;2022-10-22T13:57:29;7.30;;;1.00;;
13566;SDS011;6855;48.112;11.298;2022-10-22T13:59:56;1.27;;;0.73;;
13566;SDS011;6855;48.112;11.298;2022-10-22T14:02:23;2.00;;;0.80;;
13566;SDS011;6855;48.112;11.298;2022-10-22T14:04:50;6.53;;;1.20;;
13566;SDS011;6855;48.112;11.298;2022-10-22T14:07:18;1.43;;;0.63;;
13566;SDS011;6855;48.112;11.298;2022-10-22T14:09:45;4.03;;;0.90;;
13566;SDS011;6855;48.112;11.298;2022-10-22T14:12:13;2.70;;;0.90;;
13566;SDS011;6855;48.112;11.298;2022-10-22T14:14:42;1.00;;;0.70;;
13566;SDS011;6855;48.112;11.298;2022-10-22T14:17:10;3.90;;;0.80;;
13566;SDS011;6855;48.112;11.298;2022-10-22T14:19:45;1.00;;;0.80;;
13566;SDS011;6855;48.112;11.298;2022-10-22T14:22:16;1.57;;;0.70;;
13566;SDS011;6855;48.112;11.298;2022-10-22T14:24:58;1.90;;;0.80;;
13566;SDS011;6855;48.112;11.298;2022-10-22T14:55:49;1.27;;;0.80;;
13566;SDS011;6855;48.112;11.298;2022-10-22T15:07:56;2.80;;;0.90;;
13566;SDS011;6855;48.112;11.298;2022-10-22T15:25:37;1.27;;;0.67;;
13566;SDS011;6855;48.112;11.298;2022-10-22T15:28:10;1.80;;;0.80;;
13566;SDS011;6855;48.112;11.298;2022-10-22T15:34:10;0.97;;;0.80;;
13566;SDS011;6855;48.112;11.298;2022-10-22T15:39:44;3.37;;;1.43;;
13566;SDS011;6855;48.112;11.298;2022-10-22T15:42:13;2.40;;;0.70;;
13566;SDS011;6855;48.112;11.298;2022-10-22T15:44:40;3.90;;;0.80;;
13566;SDS011;6855;48.112;11.298;2022-10-22T15:47:08;1.90;;;0.80;;
13566;SDS011;6855;48.112;11.298;2022-10-22T15:49:36;7.97;;;0.80;;
13566;SDS011;6855;48.112;11.298;2022-10-22T15:52:03;1.43;;;0.70;;
13566;SDS011;6855;48.112;11.298;2022-10-22T15:54:31;2.50;;;0.90;;
13566;SDS011;6855;48.112;11.298;2022-10-22T15:56:58;1.50;;;1.13;;
13566;SDS011;6855;48.112;11.298;2022-10-22T15:59:28;1.53;;;0.70;;
13566;SDS011;6855;48.112;11.298;2022-10-22T16:01:56;1.67;;;0.87;;
13566;SDS011;6855;48.112;11.298;2022-10-22T16:04:23;3.57;;;1.00;;